sensor_id;sensor_type;location;lat;lon;timestamp;P1;durP1;ratioP1;P2;durP2;ratioP2
7410;SDS011;3747;48.628;9.058;2023-06-22T00:00:59;15.83;;;12.50;;
7410;SDS011;3747;48.628;9.058;2023-06-22T00:03:27;12.97;;;11.50;;
7410;SDS011;3747;48.628;9.058;2023-06-22T00:05:54;16.73;;;13.23;;
7410;SDS011;3747;48.628;9.058;2023-06-22T00:08:21;16.93;;;12.60;;
7410;SDS011;3747;48.628;9.058;2023-06-22T00:10:48;16.97;;;12.93;;
7410;SDS011;3747;48.628;9.058;2023-06-22T00:13:14;18.47;;;13.63;;
7410;SDS011;3747;48.628;9.058;2023-06-22T00:15:43;15.00;;;12.27;;
7410;SDS011;3747;48.628;9.058;2023-06-22T00:18:10;14.27;;;12.23;;
7410;SDS011;3747;48.628;9.058;2023-06-22T00:20:39;14.10;;;12.03;;
7410;SDS011;3747;48.628;9.058;2023-06-22T00:23:06;14.77;;;12.00;;
7410;SDS011;3747;48.628;9.058;2023-06-22T00:25:34;14.27;;;12.83;;
7410;SDS011;3747;48.628;9.058;2023-06-22T00:28:01;14.03;;;12.53;;
7410;SDS011;3747;48.628;9.058;2023-06-22T00:30:28;13.43;;;12.13;;
7410;SDS011;3747;48.628;9.058;2023-06-22T00:32:56;14.30;;;12.40;;
7410;SDS011;3747;48.628;9.058;2023-06-22T00:35:23;15.70;;;14.00;;
7410;SDS011;3747;48.628;9.058;2023-06-22T00:37:55;14.20;;;12.73;;
7410;SDS011;3747;48.628;9.058;2023-06-22T00:40:25;15.67;;;12.50;;
7410;SDS011;3747;48.628;9.058;2023-06-22T00:42:52;13.50;;;12.10;;
7410;SDS011;3747;48.628;9.058;2023-06-22T00:45:19;13.53;;;12.13;;
7410;SDS011;3747;48.628;9.058;2023-06-22T00:47:46;14.20;;;12.20;;
7410;SDS011;3747;48.628;9.058;2023-06-22T00:50:15;16.60;;;12.83;;
7410;SDS011;3747;48.628;9.058;2023-06-22T00:52:45;14.87;;;13.37;;
7410;SDS011;3747;48.628;9.058;2023-06-22T00:55:15;16.60;;;13.87;;
7410;SDS011;3747;48.628;9.058;2023-06-22T00:57:43;17.73;;;15.10;;
7410;SDS011;3747;48.628;9.058;2023-06-22T01:00:11;15.97;;;14.33;;
7410;SDS011;3747;48.628;9.058;2023-06-22T01:02:44;15.77;;;13.60;;
7410;SDS011;3747;48.628;9.058;2023-06-22T01:05:11;17.20;;;14.97;;
7410;SDS011;3747;48.628;9.058;2023-06-22T01:07:39;16.50;;;14.73;;
7410;SDS011;3747;48.628;9.058;2023-06-22T01:10:16;18.10;;;15.87;;
7410;SDS011;3747;48.628;9.058;2023-06-22T01:12:48;16.10;;;14.23;;
7410;SDS011;3747;48.628;9.058;2023-06-22T01:15:21;18.50;;;14.43;;
7410;SDS011;3747;48.628;9.058;2023-06-22T01:17:51;17.90;;;16.00;;
7410;SDS011;3747;48.628;9.058;2023-06-22T01:20:19;18.17;;;15.00;;
7410;SDS011;3747;48.628;9.058;2023-06-22T01:22:50;20.07;;;14.80;;
7410;SDS011;3747;48.628;9.058;2023-06-22T01:25:33;16.13;;;14.43;;
7410;SDS011;3747;48.628;9.058;2023-06-22T01:28:11;20.77;;;15.87;;
7410;SDS011;3747;48.628;9.058;2023-06-22T01:30:57;16.83;;;15.13;;
7410;SDS011;3747;48.628;9.058;2023-06-22T01:33:31;19.00;;;14.27;;
7410;SDS011;3747;48.628;9.058;2023-06-22T01:36:00;15.97;;;14.27;;
7410;SDS011;3747;48.628;9.058;2023-06-22T01:38:28;19.30;;;15.27;;
7410;SDS011;3747;48.628;9.058;2023-06-22T01:40:56;15.43;;;13.83;;
7410;SDS011;3747;48.628;9.058;2023-06-22T01:43:23;23.90;;;16.40;;
7410;SDS011;3747;48.628;9.058;2023-06-22T01:45:53;20.37;;;16.57;;
7410;SDS011;3747;48.628;9.058;2023-06-22T01:48:20;16.50;;;14.83;;
7410;SDS011;3747;48.628;9.058;2023-06-22T01:50:48;18.87;;;15.37;;
7410;SDS011;3747;48.628;9.058;2023-06-22T01:53:15;17.00;;;15.20;;
7410;SDS011;3747;48.628;9.058;2023-06-22T01:55:42;18.80;;;16.00;;
7410;SDS011;3747;48.628;9.058;2023-06-22T01:58:08;19.27;;;15.97;;
7410;SDS011;3747;48.628;9.058;2023-06-22T02:00:37;22.77;;;16.77;;
7410;SDS011;3747;48.628;9.058;2023-06-22T02:03:08;20.40;;;16.23;;
7410;SDS011;3747;48.628;9.058;2023-06-22T02:05:38;19.60;;;15.20;;
7410;SDS011;3747;48.628;9.058;2023-06-22T02:08:16;20.97;;;16.27;;
7410;SDS011;3747;48.628;9.058;2023-06-22T02:10:46;20.27;;;16.00;;
7410;SDS011;3747;48.628;9.058;2023-06-22T02:13:14;20.57;;;16.40;;
7410;SDS011;3747;48.628;9.058;2023-06-22T02:15:41;21.03;;;15.43;;
7410;SDS011;3747;48.628;9.058;2023-06-22T02:18:10;20.67;;;16.57;;
7410;SDS011;3747;48.628;9.058;2023-06-22T02:20:37;17.40;;;15.53;;
7410;SDS011;3747;48.628;9.058;2023-06-22T02:23:04;20.80;;;16.40;;
7410;SDS011;3747;48.628;9.058;2023-06-22T02:25:31;19.43;;;16.70;;
7410;SDS011;3747;48.628;9.058;2023-06-22T02:27:58;25.17;;;16.90;;
7410;SDS011;3747;48.628;9.058;2023-06-22T02:30:25;20.83;;;15.57;;
7410;SDS011;3747;48.628;9.058;2023-06-22T02:32:52;21.20;;;15.67;;
7410;SDS011;3747;48.628;9.058;2023-06-22T02:35:25;18.23;;;14.83;;
7410;SDS011;3747;48.628;9.058;2023-06-22T02:37:52;21.40;;;15.50;;
7410;SDS011;3747;48.628;9.058;2023-06-22T02:40:19;17.33;;;15.53;;
7410;SDS011;3747;48.628;9.058;2023-06-22T02:42:46;19.33;;;16.23;;
7410;SDS011;3747;48.628;9.058;2023-06-22T02:45:13;19.90;;;15.13;;
7410;SDS011;3747;48.628;9.058;2023-06-22T02:47:39;21.20;;;17.10;;
7410;SDS011;3747;48.628;9.058;2023-06-22T02:50:06;21.33;;;17.13;;
7410;SDS011;3747;48.628;9.058;2023-06-22T02:52:35;20.50;;;15.73;;
7410;SDS011;3747;48.628;9.058;2023-06-22T02:55:04;22.60;;;15.63;;
7410;SDS011;3747;48.628;9.058;2023-06-22T02:57:32;19.53;;;14.17;;
7410;SDS011;3747;48.628;9.058;2023-06-22T02:59:59;17.83;;;14.63;;
7410;SDS011;3747;48.628;9.058;2023-06-22T03:02:26;20.73;;;15.47;;
7410;SDS011;3747;48.628;9.058;2023-06-22T03:04:52;16.13;;;14.43;;
7410;SDS011;3747;48.628;9.058;2023-06-22T03:07:19;19.10;;;14.00;;
7410;SDS011;3747;48.628;9.058;2023-06-22T03:09:47;20.07;;;14.97;;
7410;SDS011;3747;48.628;9.058;2023-06-22T03:12:14;14.83;;;13.17;;
7410;SDS011;3747;48.628;9.058;2023-06-22T03:14:41;16.73;;;13.90;;
7410;SDS011;3747;48.628;9.058;2023-06-22T03:17:07;17.20;;;14.57;;
7410;SDS011;3747;48.628;9.058;2023-06-22T03:19:36;16.87;;;15.07;;
7410;SDS011;3747;48.628;9.058;2023-06-22T03:22:03;17.87;;;14.90;;
7410;SDS011;3747;48.628;9.058;2023-06-22T03:24:30;20.40;;;14.33;;
7410;SDS011;3747;48.628;9.058;2023-06-22T03:26:58;16.77;;;13.40;;
7410;SDS011;3747;48.628;9.058;2023-06-22T03:29:25;17.90;;;14.87;;
7410;SDS011;3747;48.628;9.058;2023-06-22T03:31:52;16.83;;;14.53;;
7410;SDS011;3747;48.628;9.058;2023-06-22T03:34:18;22.67;;;17.40;;
7410;SDS011;3747;48.628;9.058;2023-06-22T03:36:45;19.00;;;15.77;;
7410;SDS011;3747;48.628;9.058;2023-06-22T03:39:12;25.30;;;18.73;;
7410;SDS011;3747;48.628;9.058;2023-06-22T03:41:38;20.80;;;17.13;;
7410;SDS011;3747;48.628;9.058;2023-06-22T03:44:06;17.63;;;15.73;;
7410;SDS011;3747;48.628;9.058;2023-06-22T03:46:35;20.97;;;16.90;;
7410;SDS011;3747;48.628;9.058;2023-06-22T03:49:02;19.03;;;16.03;;
7410;SDS011;3747;48.628;9.058;2023-06-22T03:51:47;19.43;;;15.87;;
7410;SDS011;3747;48.628;9.058;2023-06-22T03:54:14;17.30;;;14.43;;
7410;SDS011;3747;48.628;9.058;2023-06-22T03:56:40;21.37;;;17.10;;
7410;SDS011;3747;48.628;9.058;2023-06-22T03:59:08;20.77;;;16.50;;
7410;SDS011;3747;48.628;9.058;2023-06-22T04:01:35;25.50;;;18.90;;
7410;SDS011;3747;48.628;9.058;2023-06-22T04:04:02;19.53;;;17.47;;
7410;SDS011;3747;48.628;9.058;2023-06-22T04:06:29;20.37;;;15.37;;
7410;SDS011;3747;48.628;9.058;2023-06-22T04:08:56;23.07;;;18.80;;
7410;SDS011;3747;48.628;9.058;2023-06-22T04:11:23;21.40;;;17.67;;
7410;SDS011;3747;48.628;9.058;2023-06-22T04:13:49;21.87;;;17.17;;
7410;SDS011;3747;48.628;9.058;2023-06-22T04:16:17;19.17;;;15.23;;
7410;SDS011;3747;48.628;9.058;2023-06-22T04:18:44;15.97;;;13.93;;
7410;SDS011;3747;48.628;9.058;2023-06-22T04:21:11;16.10;;;13.73;;
7410;SDS011;3747;48.628;9.058;2023-06-22T04:23:37;15.40;;;13.80;;
7410;SDS011;3747;48.628;9.058;2023-06-22T04:26:04;16.20;;;14.40;;
7410;SDS011;3747;48.628;9.058;2023-06-22T04:28:31;15.67;;;13.33;;
7410;SDS011;3747;48.628;9.058;2023-06-22T04:31:00;16.43;;;12.57;;
7410;SDS011;3747;48.628;9.058;2023-06-22T04:33:28;15.40;;;12.43;;
7410;SDS011;3747;48.628;9.058;2023-06-22T04:35:56;15.23;;;13.13;;
7410;SDS011;3747;48.628;9.058;2023-06-22T04:38:23;15.87;;;13.17;;
7410;SDS011;3747;48.628;9.058;2023-06-22T04:40:50;16.53;;;13.10;;
7410;SDS011;3747;48.628;9.058;2023-06-22T04:43:18;16.57;;;12.03;;
7410;SDS011;3747;48.628;9.058;2023-06-22T04:45:44;13.43;;;11.20;;
7410;SDS011;3747;48.628;9.058;2023-06-22T04:48:11;14.10;;;11.90;;
7410;SDS011;3747;48.628;9.058;2023-06-22T04:50:42;12.87;;;10.30;;
7410;SDS011;3747;48.628;9.058;2023-06-22T04:53:09;11.10;;;9.73;;
7410;SDS011;3747;48.628;9.058;2023-06-22T04:55:37;12.47;;;9.43;;
7410;SDS011;3747;48.628;9.058;2023-06-22T04:58:06;10.93;;;9.83;;
7410;SDS011;3747;48.628;9.058;2023-06-22T05:00:33;12.27;;;10.43;;
7410;SDS011;3747;48.628;9.058;2023-06-22T05:03:01;12.03;;;10.73;;
7410;SDS011;3747;48.628;9.058;2023-06-22T05:05:28;10.80;;;9.17;;
7410;SDS011;3747;48.628;9.058;2023-06-22T05:07:56;10.10;;;9.07;;
7410;SDS011;3747;48.628;9.058;2023-06-22T05:10:25;11.23;;;8.77;;
7410;SDS011;3747;48.628;9.058;2023-06-22T05:12:52;11.53;;;9.63;;
7410;SDS011;3747;48.628;9.058;2023-06-22T05:15:19;10.20;;;8.90;;
7410;SDS011;3747;48.628;9.058;2023-06-22T05:17:47;11.10;;;8.00;;
7410;SDS011;3747;48.628;9.058;2023-06-22T05:20:13;10.27;;;9.00;;
7410;SDS011;3747;48.628;9.058;2023-06-22T05:22:43;9.20;;;8.30;;
7410;SDS011;3747;48.628;9.058;2023-06-22T05:25:11;9.37;;;7.43;;
7410;SDS011;3747;48.628;9.058;2023-06-22T05:27:37;11.03;;;8.40;;
7410;SDS011;3747;48.628;9.058;2023-06-22T05:30:05;8.97;;;7.83;;
7410;SDS011;3747;48.628;9.058;2023-06-22T05:32:33;10.57;;;7.37;;
7410;SDS011;3747;48.628;9.058;2023-06-22T05:34:59;7.97;;;6.90;;
7410;SDS011;3747;48.628;9.058;2023-06-22T05:37:26;9.27;;;7.00;;
7410;SDS011;3747;48.628;9.058;2023-06-22T05:39:54;9.37;;;7.50;;
7410;SDS011;3747;48.628;9.058;2023-06-22T05:42:23;8.63;;;7.70;;
7410;SDS011;3747;48.628;9.058;2023-06-22T05:44:50;9.67;;;7.63;;
7410;SDS011;3747;48.628;9.058;2023-06-22T05:47:18;7.60;;;6.80;;
7410;SDS011;3747;48.628;9.058;2023-06-22T05:49:44;9.80;;;7.33;;
7410;SDS011;3747;48.628;9.058;2023-06-22T05:52:11;10.23;;;7.20;;
7410;SDS011;3747;48.628;9.058;2023-06-22T05:54:38;9.03;;;6.67;;
7410;SDS011;3747;48.628;9.058;2023-06-22T05:57:06;7.33;;;6.53;;
7410;SDS011;3747;48.628;9.058;2023-06-22T05:59:34;8.30;;;6.40;;
7410;SDS011;3747;48.628;9.058;2023-06-22T06:02:01;8.70;;;6.40;;
7410;SDS011;3747;48.628;9.058;2023-06-22T06:04:28;8.70;;;6.53;;
7410;SDS011;3747;48.628;9.058;2023-06-22T06:06:55;8.97;;;6.83;;
7410;SDS011;3747;48.628;9.058;2023-06-22T06:09:22;14.27;;;6.90;;
7410;SDS011;3747;48.628;9.058;2023-06-22T06:11:48;8.37;;;5.97;;
7410;SDS011;3747;48.628;9.058;2023-06-22T06:14:15;7.33;;;6.07;;
7410;SDS011;3747;48.628;9.058;2023-06-22T06:16:43;6.77;;;5.90;;
7410;SDS011;3747;48.628;9.058;2023-06-22T06:19:10;8.13;;;6.10;;
7410;SDS011;3747;48.628;9.058;2023-06-22T06:21:37;7.90;;;6.00;;
7410;SDS011;3747;48.628;9.058;2023-06-22T06:24:04;8.30;;;6.67;;
7410;SDS011;3747;48.628;9.058;2023-06-22T06:26:31;7.07;;;6.30;;
7410;SDS011;3747;48.628;9.058;2023-06-22T06:29:00;6.23;;;5.63;;
7410;SDS011;3747;48.628;9.058;2023-06-22T06:31:28;7.67;;;6.00;;
7410;SDS011;3747;48.628;9.058;2023-06-22T06:33:56;7.07;;;5.20;;
7410;SDS011;3747;48.628;9.058;2023-06-22T06:36:23;7.20;;;5.43;;
7410;SDS011;3747;48.628;9.058;2023-06-22T06:38:50;7.90;;;5.47;;
7410;SDS011;3747;48.628;9.058;2023-06-22T06:41:16;7.83;;;5.03;;
7410;SDS011;3747;48.628;9.058;2023-06-22T06:43:43;7.43;;;5.23;;
7410;SDS011;3747;48.628;9.058;2023-06-22T06:46:10;12.60;;;5.70;;
7410;SDS011;3747;48.628;9.058;2023-06-22T06:48:37;6.87;;;4.73;;
7410;SDS011;3747;48.628;9.058;2023-06-22T06:51:06;8.73;;;5.13;;
7410;SDS011;3747;48.628;9.058;2023-06-22T06:53:40;5.83;;;4.67;;
7410;SDS011;3747;48.628;9.058;2023-06-22T06:56:06;8.83;;;5.03;;
7410;SDS011;3747;48.628;9.058;2023-06-22T06:58:35;10.67;;;5.20;;
7410;SDS011;3747;48.628;9.058;2023-06-22T07:01:02;6.30;;;4.60;;
7410;SDS011;3747;48.628;9.058;2023-06-22T07:03:28;5.87;;;4.37;;
7410;SDS011;3747;48.628;9.058;2023-06-22T07:06:09;6.90;;;4.90;;
7410;SDS011;3747;48.628;9.058;2023-06-22T07:08:36;6.67;;;4.53;;
7410;SDS011;3747;48.628;9.058;2023-06-22T07:11:04;6.77;;;4.97;;
7410;SDS011;3747;48.628;9.058;2023-06-22T07:13:31;6.70;;;4.90;;
7410;SDS011;3747;48.628;9.058;2023-06-22T07:15:58;6.37;;;4.97;;
7410;SDS011;3747;48.628;9.058;2023-06-22T07:18:25;7.13;;;4.83;;
7410;SDS011;3747;48.628;9.058;2023-06-22T07:20:52;5.70;;;4.67;;
7410;SDS011;3747;48.628;9.058;2023-06-22T07:23:30;6.50;;;5.13;;
7410;SDS011;3747;48.628;9.058;2023-06-22T07:25:56;7.80;;;5.37;;
7410;SDS011;3747;48.628;9.058;2023-06-22T07:28:37;6.73;;;5.10;;
7410;SDS011;3747;48.628;9.058;2023-06-22T07:31:05;8.43;;;5.47;;
7410;SDS011;3747;48.628;9.058;2023-06-22T07:33:33;7.60;;;5.10;;
7410;SDS011;3747;48.628;9.058;2023-06-22T07:36:00;9.87;;;5.03;;
7410;SDS011;3747;48.628;9.058;2023-06-22T07:38:30;8.70;;;5.70;;
7410;SDS011;3747;48.628;9.058;2023-06-22T07:40:56;9.00;;;5.20;;
7410;SDS011;3747;48.628;9.058;2023-06-22T07:43:23;7.33;;;5.30;;
7410;SDS011;3747;48.628;9.058;2023-06-22T07:45:50;5.87;;;5.03;;
7410;SDS011;3747;48.628;9.058;2023-06-22T07:48:19;7.00;;;4.83;;
7410;SDS011;3747;48.628;9.058;2023-06-22T07:50:48;9.37;;;4.57;;
7410;SDS011;3747;48.628;9.058;2023-06-22T07:53:15;5.70;;;4.70;;
7410;SDS011;3747;48.628;9.058;2023-06-22T07:55:43;6.53;;;4.70;;
7410;SDS011;3747;48.628;9.058;2023-06-22T07:58:10;11.83;;;5.20;;
7410;SDS011;3747;48.628;9.058;2023-06-22T08:00:36;6.87;;;4.93;;
7410;SDS011;3747;48.628;9.058;2023-06-22T08:03:03;10.52;;;5.35;;
7410;SDS011;3747;48.628;9.058;2023-06-22T08:05:30;7.80;;;4.72;;
7410;SDS011;3747;48.628;9.058;2023-06-22T08:07:57;6.68;;;5.15;;
7410;SDS011;3747;48.628;9.058;2023-06-22T08:10:31;5.22;;;4.60;;
7410;SDS011;3747;48.628;9.058;2023-06-22T08:12:59;9.10;;;5.22;;
7410;SDS011;3747;48.628;9.058;2023-06-22T08:15:25;9.15;;;5.18;;
7410;SDS011;3747;48.628;9.058;2023-06-22T08:17:53;11.52;;;5.40;;
7410;SDS011;3747;48.628;9.058;2023-06-22T08:20:20;11.07;;;5.25;;
7410;SDS011;3747;48.628;9.058;2023-06-22T08:22:46;8.10;;;5.43;;
7410;SDS011;3747;48.628;9.058;2023-06-22T08:25:13;9.40;;;6.03;;
7410;SDS011;3747;48.628;9.058;2023-06-22T08:27:40;8.38;;;4.72;;
7410;SDS011;3747;48.628;9.058;2023-06-22T08:30:17;8.20;;;4.85;;
7410;SDS011;3747;48.628;9.058;2023-06-22T08:32:44;7.35;;;5.57;;
7410;SDS011;3747;48.628;9.058;2023-06-22T08:35:10;9.90;;;5.60;;
7410;SDS011;3747;48.628;9.058;2023-06-22T08:37:37;8.20;;;5.33;;
7410;SDS011;3747;48.628;9.058;2023-06-22T08:40:04;11.57;;;5.10;;
7410;SDS011;3747;48.628;9.058;2023-06-22T08:42:34;6.07;;;5.43;;
7410;SDS011;3747;48.628;9.058;2023-06-22T08:45:01;8.63;;;5.73;;
7410;SDS011;3747;48.628;9.058;2023-06-22T08:50:22;6.50;;;4.57;;
7410;SDS011;3747;48.628;9.058;2023-06-22T08:52:49;5.93;;;5.30;;
7410;SDS011;3747;48.628;9.058;2023-06-22T08:55:16;10.47;;;5.50;;
7410;SDS011;3747;48.628;9.058;2023-06-22T08:57:43;9.87;;;5.57;;
7410;SDS011;3747;48.628;9.058;2023-06-22T09:00:10;10.50;;;5.43;;
7410;SDS011;3747;48.628;9.058;2023-06-22T09:02:41;7.33;;;5.47;;
7410;SDS011;3747;48.628;9.058;2023-06-22T09:05:09;12.97;;;5.87;;
7410;SDS011;3747;48.628;9.058;2023-06-22T09:07:39;12.15;;;5.65;;
7410;SDS011;3747;48.628;9.058;2023-06-22T09:10:07;10.00;;;5.45;;
7410;SDS011;3747;48.628;9.058;2023-06-22T09:12:34;6.40;;;5.07;;
7410;SDS011;3747;48.628;9.058;2023-06-22T09:15:02;9.85;;;5.40;;
7410;SDS011;3747;48.628;9.058;2023-06-22T09:17:31;7.88;;;5.30;;
7410;SDS011;3747;48.628;9.058;2023-06-22T09:19:59;8.88;;;5.75;;
7410;SDS011;3747;48.628;9.058;2023-06-22T09:22:27;9.27;;;5.65;;
7410;SDS011;3747;48.628;9.058;2023-06-22T09:24:54;7.25;;;5.70;;
7410;SDS011;3747;48.628;9.058;2023-06-22T09:27:21;9.95;;;5.72;;
7410;SDS011;3747;48.628;9.058;2023-06-22T09:29:47;10.68;;;5.30;;
7410;SDS011;3747;48.628;9.058;2023-06-22T09:32:14;8.27;;;5.63;;
7410;SDS011;3747;48.628;9.058;2023-06-22T09:34:41;9.02;;;5.60;;
7410;SDS011;3747;48.628;9.058;2023-06-22T09:37:08;9.40;;;5.75;;
7410;SDS011;3747;48.628;9.058;2023-06-22T09:39:36;10.55;;;5.45;;
7410;SDS011;3747;48.628;9.058;2023-06-22T09:42:03;8.63;;;5.00;;
7410;SDS011;3747;48.628;9.058;2023-06-22T09:44:31;9.45;;;5.57;;
7410;SDS011;3747;48.628;9.058;2023-06-22T09:46:58;5.10;;;4.63;;
7410;SDS011;3747;48.628;9.058;2023-06-22T09:49:24;8.68;;;5.72;;
7410;SDS011;3747;48.628;9.058;2023-06-22T09:51:51;8.20;;;5.57;;
7410;SDS011;3747;48.628;9.058;2023-06-22T09:54:18;11.30;;;7.80;;
7410;SDS011;3747;48.628;9.058;2023-06-22T09:56:46;10.85;;;5.38;;
7410;SDS011;3747;48.628;9.058;2023-06-22T09:59:12;8.80;;;6.88;;
7410;SDS011;3747;48.628;9.058;2023-06-22T10:01:39;8.02;;;6.45;;
7410;SDS011;3747;48.628;9.058;2023-06-22T10:04:06;7.88;;;6.10;;
7410;SDS011;3747;48.628;9.058;2023-06-22T10:06:32;9.93;;;5.53;;
7410;SDS011;3747;48.628;9.058;2023-06-22T10:08:59;9.57;;;5.60;;
7410;SDS011;3747;48.628;9.058;2023-06-22T10:11:26;9.25;;;5.40;;
7410;SDS011;3747;48.628;9.058;2023-06-22T10:13:56;9.77;;;5.80;;
7410;SDS011;3747;48.628;9.058;2023-06-22T10:16:23;9.48;;;5.80;;
7410;SDS011;3747;48.628;9.058;2023-06-22T10:18:56;10.02;;;5.20;;
7410;SDS011;3747;48.628;9.058;2023-06-22T10:21:22;6.45;;;4.90;;
7410;SDS011;3747;48.628;9.058;2023-06-22T10:23:49;7.93;;;5.80;;
7410;SDS011;3747;48.628;9.058;2023-06-22T10:26:16;7.80;;;5.50;;
7410;SDS011;3747;48.628;9.058;2023-06-22T10:28:42;8.82;;;5.22;;
7410;SDS011;3747;48.628;9.058;2023-06-22T10:31:10;8.02;;;5.40;;
7410;SDS011;3747;48.628;9.058;2023-06-22T10:33:37;7.82;;;5.45;;
7410;SDS011;3747;48.628;9.058;2023-06-22T10:36:06;8.95;;;6.43;;
7410;SDS011;3747;48.628;9.058;2023-06-22T10:38:33;12.35;;;6.72;;
7410;SDS011;3747;48.628;9.058;2023-06-22T10:40:59;11.05;;;5.72;;
7410;SDS011;3747;48.628;9.058;2023-06-22T10:43:26;11.82;;;5.63;;
7410;SDS011;3747;48.628;9.058;2023-06-22T10:45:53;8.65;;;5.68;;
7410;SDS011;3747;48.628;9.058;2023-06-22T10:48:21;10.18;;;5.82;;
7410;SDS011;3747;48.628;9.058;2023-06-22T10:50:47;11.02;;;5.80;;
7410;SDS011;3747;48.628;9.058;2023-06-22T10:53:14;9.93;;;5.60;;
7410;SDS011;3747;48.628;9.058;2023-06-22T10:55:41;8.70;;;5.43;;
7410;SDS011;3747;48.628;9.058;2023-06-22T10:58:08;12.65;;;5.78;;
7410;SDS011;3747;48.628;9.058;2023-06-22T11:00:34;9.73;;;6.38;;
7410;SDS011;3747;48.628;9.058;2023-06-22T11:03:02;8.95;;;5.85;;
7410;SDS011;3747;48.628;9.058;2023-06-22T11:05:30;11.00;;;6.00;;
7410;SDS011;3747;48.628;9.058;2023-06-22T11:07:57;8.77;;;5.50;;
7410;SDS011;3747;48.628;9.058;2023-06-22T11:10:24;7.20;;;5.55;;
7410;SDS011;3747;48.628;9.058;2023-06-22T11:12:51;8.35;;;5.75;;
7410;SDS011;3747;48.628;9.058;2023-06-22T11:15:18;12.38;;;6.00;;
7410;SDS011;3747;48.628;9.058;2023-06-22T11:17:44;11.50;;;5.90;;
7410;SDS011;3747;48.628;9.058;2023-06-22T11:20:11;14.60;;;6.38;;
7410;SDS011;3747;48.628;9.058;2023-06-22T11:22:40;8.07;;;5.78;;
7410;SDS011;3747;48.628;9.058;2023-06-22T11:25:07;8.75;;;5.75;;
7410;SDS011;3747;48.628;9.058;2023-06-22T11:27:36;12.05;;;6.20;;
7410;SDS011;3747;48.628;9.058;2023-06-22T11:30:03;9.45;;;6.05;;
7410;SDS011;3747;48.628;9.058;2023-06-22T11:32:31;8.18;;;5.75;;
7410;SDS011;3747;48.628;9.058;2023-06-22T11:34:58;8.68;;;5.63;;
7410;SDS011;3747;48.628;9.058;2023-06-22T11:37:25;12.57;;;6.07;;
7410;SDS011;3747;48.628;9.058;2023-06-22T11:39:53;10.45;;;6.38;;
7410;SDS011;3747;48.628;9.058;2023-06-22T11:42:20;10.65;;;5.82;;
7410;SDS011;3747;48.628;9.058;2023-06-22T11:44:48;15.13;;;6.47;;
7410;SDS011;3747;48.628;9.058;2023-06-22T11:47:15;10.18;;;6.82;;
7410;SDS011;3747;48.628;9.058;2023-06-22T11:49:41;9.00;;;5.80;;
7410;SDS011;3747;48.628;9.058;2023-06-22T11:52:08;10.13;;;5.53;;
7410;SDS011;3747;48.628;9.058;2023-06-22T11:54:35;8.20;;;5.85;;
7410;SDS011;3747;48.628;9.058;2023-06-22T11:57:04;10.60;;;5.70;;
7410;SDS011;3747;48.628;9.058;2023-06-22T11:59:30;8.35;;;6.25;;
7410;SDS011;3747;48.628;9.058;2023-06-22T12:01:59;7.68;;;5.68;;
7410;SDS011;3747;48.628;9.058;2023-06-22T12:04:26;8.88;;;6.18;;
7410;SDS011;3747;48.628;9.058;2023-06-22T12:06:52;12.57;;;5.85;;
7410;SDS011;3747;48.628;9.058;2023-06-22T12:09:19;10.77;;;6.32;;
7410;SDS011;3747;48.628;9.058;2023-06-22T12:11:46;6.32;;;5.57;;
7410;SDS011;3747;48.628;9.058;2023-06-22T12:14:14;12.13;;;6.60;;
7410;SDS011;3747;48.628;9.058;2023-06-22T12:16:41;8.35;;;6.40;;
7410;SDS011;3747;48.628;9.058;2023-06-22T12:19:08;8.50;;;5.47;;
7410;SDS011;3747;48.628;9.058;2023-06-22T12:21:36;10.20;;;5.93;;
7410;SDS011;3747;48.628;9.058;2023-06-22T12:24:04;12.30;;;6.50;;
7410;SDS011;3747;48.628;9.058;2023-06-22T12:26:31;9.70;;;6.20;;
7410;SDS011;3747;48.628;9.058;2023-06-22T12:28:57;9.67;;;6.13;;
7410;SDS011;3747;48.628;9.058;2023-06-22T12:31:25;12.40;;;7.15;;
7410;SDS011;3747;48.628;9.058;2023-06-22T12:33:52;10.40;;;6.00;;
7410;SDS011;3747;48.628;9.058;2023-06-22T12:36:19;8.77;;;5.65;;
7410;SDS011;3747;48.628;9.058;2023-06-22T12:38:45;14.23;;;6.90;;
7410;SDS011;3747;48.628;9.058;2023-06-22T12:41:13;9.60;;;6.03;;
7410;SDS011;3747;48.628;9.058;2023-06-22T12:43:40;11.10;;;6.80;;
7410;SDS011;3747;48.628;9.058;2023-06-22T12:46:06;8.77;;;5.90;;
7410;SDS011;3747;48.628;9.058;2023-06-22T12:48:34;9.57;;;6.38;;
7410;SDS011;3747;48.628;9.058;2023-06-22T12:51:06;10.27;;;5.88;;
7410;SDS011;3747;48.628;9.058;2023-06-22T12:53:33;7.47;;;6.32;;
7410;SDS011;3747;48.628;9.058;2023-06-22T12:56:00;10.18;;;6.32;;
7410;SDS011;3747;48.628;9.058;2023-06-22T12:58:26;10.80;;;5.97;;
7410;SDS011;3747;48.628;9.058;2023-06-22T13:00:53;10.30;;;6.43;;
7410;SDS011;3747;48.628;9.058;2023-06-22T13:03:20;10.87;;;6.00;;
7410;SDS011;3747;48.628;9.058;2023-06-22T13:05:48;12.40;;;6.67;;
7410;SDS011;3747;48.628;9.058;2023-06-22T13:08:14;11.37;;;6.33;;
7410;SDS011;3747;48.628;9.058;2023-06-22T13:10:41;9.20;;;6.27;;
7410;SDS011;3747;48.628;9.058;2023-06-22T13:13:08;11.50;;;5.73;;
7410;SDS011;3747;48.628;9.058;2023-06-22T13:15:34;8.00;;;5.88;;
7410;SDS011;3747;48.628;9.058;2023-06-22T13:18:01;10.45;;;6.53;;
7410;SDS011;3747;48.628;9.058;2023-06-22T13:20:28;9.57;;;5.87;;
7410;SDS011;3747;48.628;9.058;2023-06-22T13:22:56;13.02;;;5.85;;
7410;SDS011;3747;48.628;9.058;2023-06-22T13:25:23;10.73;;;6.70;;
7410;SDS011;3747;48.628;9.058;2023-06-22T13:27:51;9.50;;;5.80;;
7410;SDS011;3747;48.628;9.058;2023-06-22T13:30:19;11.53;;;6.17;;
7410;SDS011;3747;48.628;9.058;2023-06-22T13:32:46;11.32;;;5.63;;
7410;SDS011;3747;48.628;9.058;2023-06-22T13:35:12;8.40;;;5.55;;
7410;SDS011;3747;48.628;9.058;2023-06-22T13:37:39;9.23;;;6.15;;
7410;SDS011;3747;48.628;9.058;2023-06-22T13:40:08;10.10;;;6.43;;
7410;SDS011;3747;48.628;9.058;2023-06-22T13:42:50;12.05;;;6.43;;
7410;SDS011;3747;48.628;9.058;2023-06-22T13:45:17;10.35;;;6.20;;
7410;SDS011;3747;48.628;9.058;2023-06-22T13:47:45;9.65;;;5.82;;
7410;SDS011;3747;48.628;9.058;2023-06-22T13:50:11;9.25;;;6.78;;
7410;SDS011;3747;48.628;9.058;2023-06-22T13:52:38;10.75;;;6.07;;
7410;SDS011;3747;48.628;9.058;2023-06-22T13:55:05;11.45;;;5.88;;
7410;SDS011;3747;48.628;9.058;2023-06-22T13:57:35;11.32;;;6.10;;
7410;SDS011;3747;48.628;9.058;2023-06-22T14:00:02;12.07;;;5.55;;
7410;SDS011;3747;48.628;9.058;2023-06-22T14:02:30;8.65;;;5.78;;
7410;SDS011;3747;48.628;9.058;2023-06-22T14:04:57;10.25;;;6.18;;
7410;SDS011;3747;48.628;9.058;2023-06-22T14:07:24;8.73;;;5.28;;
7410;SDS011;3747;48.628;9.058;2023-06-22T14:12:37;9.80;;;6.57;;
7410;SDS011;3747;48.628;9.058;2023-06-22T14:15:04;9.90;;;6.70;;
7410;SDS011;3747;48.628;9.058;2023-06-22T14:17:31;12.60;;;5.70;;
7410;SDS011;3747;48.628;9.058;2023-06-22T14:19:58;12.00;;;6.18;;
7410;SDS011;3747;48.628;9.058;2023-06-22T14:22:24;10.40;;;5.82;;
7410;SDS011;3747;48.628;9.058;2023-06-22T14:24:54;11.75;;;5.82;;
7410;SDS011;3747;48.628;9.058;2023-06-22T14:27:23;10.80;;;6.13;;
7410;SDS011;3747;48.628;9.058;2023-06-22T14:29:52;11.55;;;5.13;;
7410;SDS011;3747;48.628;9.058;2023-06-22T14:32:19;10.35;;;4.78;;
7410;SDS011;3747;48.628;9.058;2023-06-22T14:34:46;9.90;;;4.72;;
7410;SDS011;3747;48.628;9.058;2023-06-22T14:37:12;12.23;;;4.45;;
7410;SDS011;3747;48.628;9.058;2023-06-22T14:39:39;14.85;;;5.05;;
7410;SDS011;3747;48.628;9.058;2023-06-22T14:42:06;11.02;;;4.50;;
7410;SDS011;3747;48.628;9.058;2023-06-22T14:44:47;10.68;;;4.10;;
7410;SDS011;3747;48.628;9.058;2023-06-22T14:47:14;8.85;;;3.47;;
7410;SDS011;3747;48.628;9.058;2023-06-22T14:49:43;9.05;;;3.83;;
7410;SDS011;3747;48.628;9.058;2023-06-22T14:52:10;8.35;;;3.55;;
7410;SDS011;3747;48.628;9.058;2023-06-22T14:54:36;11.90;;;3.78;;
7410;SDS011;3747;48.628;9.058;2023-06-22T14:57:13;9.05;;;3.83;;
7410;SDS011;3747;48.628;9.058;2023-06-22T14:59:50;8.90;;;3.40;;
7410;SDS011;3747;48.628;9.058;2023-06-22T15:02:17;9.50;;;3.42;;
7410;SDS011;3747;48.628;9.058;2023-06-22T15:04:50;9.25;;;3.40;;
7410;SDS011;3747;48.628;9.058;2023-06-22T15:07:22;7.00;;;3.65;;
7410;SDS011;3747;48.628;9.058;2023-06-22T15:09:49;11.60;;;3.78;;
7410;SDS011;3747;48.628;9.058;2023-06-22T15:12:22;7.57;;;3.67;;